Time;durP1;ratioP1;P1;durP2;ratioP2;P2;SDS_P1;SDS_P2;PMS_P1;PMS_P2;Temp;Humidity;BMP_temperature;BMP_pressure;BME280_temperature;BME280_humidity;BME280_pressure;Samples;Min_cycle;Max_cycle;Signal;HPM_P1;HPM_P2
2023/09/18 00:00:35;;;;;;;7.65;4.80;;;;;;;19.83;86.07;100327.66;7393406;19;20364;-83
2023/09/18 00:03:03;;;;;;;5.50;4.60;;;;;;;19.82;86.37;100329.53;7392653;19;20361;-83
2023/09/18 00:05:31;;;;;;;5.22;4.40;;;;;;;19.79;86.15;100319.25;7394374;19;20364;-84
2023/09/18 00:07:58;;;;;;;7.88;4.85;;;;;;;19.77;86.17;100312.50;7391973;19;20390;-83
2023/09/18 00:10:26;;;;;;;6.10;4.73;;;;;;;19.72;86.37;100313.22;7392546;19;20386;-83
2023/09/18 00:12:53;;;;;;;5.55;4.45;;;;;;;19.70;86.43;100304.56;7389501;19;20360;-83
2023/09/18 00:15:20;;;;;;;5.10;4.60;;;;;;;19.67;86.83;100299.66;7388304;19;20379;-83
2023/09/18 00:17:47;;;;;;;6.65;4.82;;;;;;;19.64;86.73;100290.19;7392888;19;20973;-83
2023/09/18 00:20:17;;;;;;;6.68;4.43;;;;;;;19.62;87.06;100286.94;7394940;19;20393;-84
2023/09/18 00:22:44;;;;;;;7.05;5.20;;;;;;;19.58;86.85;100279.59;7395260;19;20349;-83
2023/09/18 00:25:11;;;;;;;7.13;5.38;;;;;;;19.55;87.06;100273.66;7391021;19;20921;-83
2023/09/18 00:27:38;;;;;;;5.72;4.97;;;;;;;19.52;87.18;100260.66;7393640;19;20371;-83
2023/09/18 00:30:06;;;;;;;6.97;5.00;;;;;;;19.49;87.72;100265.75;7395015;19;20365;-83
2023/09/18 00:32:33;;;;;;;6.15;4.80;;;;;;;19.44;87.59;100263.75;7390180;19;20371;-83
2023/09/18 00:35:00;;;;;;;6.20;4.93;;;;;;;19.40;87.93;100261.81;7383208;19;20377;-84
2023/09/18 00:37:27;;;;;;;7.00;5.10;;;;;;;19.34;88.27;100252.88;7387451;19;20479;-83
2023/09/18 00:39:53;;;;;;;7.15;5.38;;;;;;;19.29;88.33;100250.06;7388940;19;20452;-83
2023/09/18 00:42:22;;;;;;;6.10;5.22;;;;;;;19.24;88.52;100239.25;7386269;19;20357;-83
2023/09/18 00:44:50;;;;;;;7.50;5.55;;;;;;;19.17;88.40;100238.56;7386763;19;20364;-83
2023/09/18 00:47:17;;;;;;;8.07;5.60;;;;;;;19.11;88.76;100249.25;7394594;19;20372;-83
2023/09/18 00:49:48;;;;;;;5.55;4.97;;;;;;;19.06;89.22;100243.78;7390374;19;20365;-83
2023/09/18 00:52:16;;;;;;;7.05;5.13;;;;;;;19.02;89.72;100234.56;7389321;19;20365;-83
2023/09/18 00:54:44;;;;;;;5.80;5.20;;;;;;;19.01;89.68;100222.19;7394339;19;20943;-83
2023/09/18 00:57:11;;;;;;;6.57;5.13;;;;;;;19.00;89.86;100222.41;7386332;19;20373;-83
2023/09/18 00:59:38;;;;;;;6.97;5.25;;;;;;;18.99;90.16;100224.28;7391681;19;20456;-83
2023/09/18 01:02:06;;;;;;;6.97;5.40;;;;;;;18.98;90.19;100227.22;7391422;19;20372;-83
2023/09/18 01:04:33;;;;;;;6.93;5.25;;;;;;;18.99;90.22;100223.47;7390847;19;20364;-83
2023/09/18 01:07:04;;;;;;;6.50;5.50;;;;;;;18.98;90.36;100217.31;7385084;19;20869;-84
2023/09/18 01:09:32;;;;;;;6.85;5.30;;;;;;;18.97;90.23;100212.97;7385630;19;20369;-83
2023/09/18 01:11:59;;;;;;;7.40;5.25;;;;;;;18.97;90.32;100204.91;7385736;19;20365;-83
2023/09/18 01:14:29;;;;;;;7.03;5.35;;;;;;;18.97;90.46;100198.72;7393736;19;20397;-83
2023/09/18 01:16:58;;;;;;;8.32;5.15;;;;;;;18.96;90.50;100200.59;7392891;19;20729;-83
2023/09/18 01:19:45;;;;;;;7.32;5.45;;;;;;;18.95;90.32;100188.19;7394186;19;20778;-84
2023/09/18 01:22:15;;;;;;;8.48;5.80;;;;;;;18.94;90.05;100183.91;7389389;19;20386;-83
2023/09/18 01:24:43;;;;;;;7.28;6.20;;;;;;;18.92;90.19;100180.63;7390480;19;20353;-83
2023/09/18 01:27:18;;;;;;;6.05;5.15;;;;;;;18.90;90.13;100175.50;7388633;19;20431;-83
2023/09/18 01:29:46;;;;;;;6.85;5.07;;;;;;;18.88;90.18;100174.91;7390485;19;20447;-83
2023/09/18 01:32:13;;;;;;;7.13;5.25;;;;;;;18.87;90.36;100172.47;7392465;19;20370;-83
2023/09/18 01:34:46;;;;;;;7.88;5.13;;;;;;;18.84;90.89;100163.03;7390439;19;20368;-83
2023/09/18 01:37:16;;;;;;;6.40;5.10;;;;;;;18.82;90.80;100167.03;7393302;19;20444;-84
2023/09/18 01:39:45;;;;;;;5.87;5.13;;;;;;;18.80;90.83;100159.19;7392403;19;20395;-83
2023/09/18 01:42:12;;;;;;;7.35;5.25;;;;;;;18.78;91.32;100152.41;7385090;19;20367;-84
2023/09/18 01:44:40;;;;;;;10.07;5.22;;;;;;;18.76;90.99;100163.38;7392103;19;20396;-83
2023/09/18 01:47:11;;;;;;;6.72;5.20;;;;;;;18.74;91.33;100154.75;7389842;19;20372;-84
2023/09/18 01:49:39;;;;;;;9.05;5.47;;;;;;;18.72;91.70;100152.31;7390969;19;20851;-83
2023/09/18 01:52:08;;;;;;;7.38;5.20;;;;;;;18.72;91.81;100157.69;7391664;19;20377;-83
2023/09/18 01:54:36;;;;;;;8.65;5.47;;;;;;;18.71;91.89;100157.94;7396186;19;20368;-84
2023/09/18 01:57:04;;;;;;;7.45;5.45;;;;;;;18.71;91.56;100148.00;7398636;19;20408;-83
2023/09/18 01:59:31;;;;;;;8.60;5.32;;;;;;;18.71;91.88;100153.38;7401212;19;20360;-84
2023/09/18 02:01:59;;;;;;;9.13;5.55;;;;;;;18.70;92.14;100138.31;7398122;19;20372;-84
2023/09/18 02:04:27;;;;;;;6.97;5.22;;;;;;;18.70;91.91;100138.31;7396586;19;20729;-84
2023/09/18 02:07:14;;;;;;;7.97;5.90;;;;;;;18.69;91.60;100128.63;7394529;19;20354;-87
2023/09/18 02:09:41;;;;;;;8.90;5.80;;;;;;;18.68;91.70;100127.00;7395874;19;22050;-84
2023/09/18 02:12:08;;;;;;;7.25;5.50;;;;;;;18.65;91.86;100124.78;7395660;19;20420;-83
2023/09/18 02:14:35;;;;;;;6.82;5.38;;;;;;;18.62;91.91;100122.59;7398867;19;20376;-84
2023/09/18 02:17:02;;;;;;;8.13;5.65;;;;;;;18.59;91.68;100116.88;7405481;19;20373;-84
2023/09/18 02:19:29;;;;;;;7.03;5.35;;;;;;;18.56;92.23;100112.81;7405280;19;20345;-86
2023/09/18 02:22:00;;;;;;;7.68;5.68;;;;;;;18.54;92.15;100114.91;7398298;19;20883;-84
2023/09/18 02:24:27;;;;;;;7.10;5.65;;;;;;;18.52;92.22;100114.34;7406656;19;20881;-84
2023/09/18 02:26:54;;;;;;;9.57;5.88;;;;;;;18.51;92.29;100110.03;7403106;19;20409;-84
2023/09/18 02:29:21;;;;;;;8.25;5.38;;;;;;;18.49;92.70;100107.59;7401443;19;20353;-84
2023/09/18 02:31:48;;;;;;;7.32;5.53;;;;;;;18.49;92.46;100096.03;7404084;19;20352;-84
2023/09/18 02:34:15;;;;;;;6.80;5.88;;;;;;;18.50;92.17;100111.09;7405629;19;20364;-84
2023/09/18 02:36:41;;;;;;;7.00;5.40;;;;;;;18.48;92.35;100095.22;7402772;19;20355;-84
2023/09/18 02:39:08;;;;;;;7.18;5.30;;;;;;;18.49;92.42;100096.03;7400812;19;20360;-84
2023/09/18 02:41:35;;;;;;;8.95;5.50;;;;;;;18.49;92.56;100096.03;7406115;19;20381;-83
2023/09/18 02:44:04;;;;;;;7.70;5.47;;;;;;;18.49;92.56;100090.66;7405028;19;20385;-84
2023/09/18 02:46:31;;;;;;;7.80;5.65;;;;;;;18.49;92.54;100088.00;7403091;19;20373;-83
2023/09/18 02:49:01;;;;;;;8.10;5.50;;;;;;;18.50;92.39;100086.91;7404141;19;20349;-84
2023/09/18 02:51:28;;;;;;;6.93;5.23;;;;;;;18.48;92.53;100081.78;7403092;19;20360;-84
2023/09/18 02:53:54;;;;;;;7.65;5.32;;;;;;;18.49;92.33;100074.56;7403956;19;20709;-84
2023/09/18 02:56:21;;;;;;;7.25;5.90;;;;;;;18.48;92.10;100079.09;7404158;19;20384;-84
2023/09/18 02:58:49;;;;;;;7.80;5.55;;;;;;;18.48;92.28;100084.47;7406627;19;20810;-84
2023/09/18 03:01:17;;;;;;;7.97;4.80;;;;;;;18.46;92.35;100078.53;7408228;19;20373;-84
2023/09/18 03:03:44;;;;;;;9.65;5.47;;;;;;;18.44;92.49;100077.94;7403857;19;20401;-84
2023/09/18 03:06:11;;;;;;;5.82;5.22;;;;;;;18.45;92.36;100076.91;7398215;19;20352;-84
2023/09/18 03:08:38;;;;;;;7.45;5.40;;;;;;;18.46;92.63;100072.34;7406126;19;20849;-84
2023/09/18 03:11:12;;;;;;;7.15;5.10;;;;;;;18.48;92.56;100076.41;7402429;19;20356;-84
2023/09/18 03:13:47;;;;;;;7.00;5.35;;;;;;;18.50;92.46;100062.75;7401917;19;20704;-84
2023/09/18 03:16:16;;;;;;;5.88;4.88;;;;;;;18.52;92.44;100056.06;7399834;19;20337;-84
2023/09/18 03:18:45;;;;;;;7.00;5.55;;;;;;;18.55;92.51;100049.38;7403892;19;20712;-84
2023/09/18 03:21:12;;;;;;;6.25;5.03;;;;;;;18.57;92.34;100049.97;7405649;19;20357;-84
2023/09/18 03:23:39;;;;;;;6.25;5.32;;;;;;;18.59;92.11;100047.84;7401051;19;20347;-84
2023/09/18 03:26:06;;;;;;;6.38;5.15;;;;;;;18.59;91.96;100042.47;7402769;19;20694;-84
2023/09/18 03:28:33;;;;;;;7.53;5.35;;;;;;;18.60;91.89;100043.31;7406376;19;20352;-84
2023/09/18 03:31:00;;;;;;;7.68;5.20;;;;;;;18.62;91.88;100047.38;7398553;19;20373;-84
2023/09/18 03:33:27;;;;;;;8.10;5.75;;;;;;;18.64;91.87;100042.56;7401051;19;20369;-84
2023/09/18 03:35:54;;;;;;;7.45;5.57;;;;;;;18.63;91.86;100030.19;7400124;19;20376;-84
2023/09/18 03:38:25;;;;;;;6.57;5.43;;;;;;;18.63;91.43;100027.50;7402599;19;20688;-84
2023/09/18 03:40:52;;;;;;;8.63;5.35;;;;;;;18.64;91.49;100021.09;7402172;19;20357;-84
2023/09/18 03:43:21;;;;;;;6.68;5.18;;;;;;;18.64;91.63;100017.59;7403852;19;20353;-84
2023/09/18 03:45:48;;;;;;;8.27;5.60;;;;;;;18.65;91.59;100014.63;7401194;19;20382;-84
2023/09/18 03:48:16;;;;;;;8.18;5.15;;;;;;;18.66;91.21;100008.22;7401656;19;20358;-84
2023/09/18 03:50:43;;;;;;;8.52;5.57;;;;;;;18.65;91.23;99998.50;7396050;19;21213;-84
2023/09/18 03:53:10;;;;;;;6.10;5.07;;;;;;;18.64;91.45;99991.53;7403254;19;20361;-83
2023/09/18 03:55:37;;;;;;;9.18;5.22;;;;;;;18.61;91.24;99986.63;7402052;19;20433;-84
2023/09/18 03:58:05;;;;;;;14.50;5.75;;;;;;;18.57;91.19;99977.44;7401355;19;20382;-83
2023/09/18 04:00:32;;;;;;;7.13;5.22;;;;;;;18.54;91.14;99965.31;7405580;19;20372;-84
2023/09/18 04:02:59;;;;;;;7.80;5.40;;;;;;;18.51;91.25;99973.06;7399873;19;20380;-84
2023/09/18 04:05:26;;;;;;;6.45;5.15;;;;;;;18.49;91.61;99969.81;7400631;19;20380;-83
2023/09/18 04:07:55;;;;;;;7.30;5.13;;;;;;;18.45;91.97;99971.34;7399485;19;20352;-84
2023/09/18 04:10:22;;;;;;;6.63;5.10;;;;;;;18.42;92.14;99966.47;7396256;19;20886;-84
2023/09/18 04:12:51;;;;;;;6.30;5.50;;;;;;;18.40;92.24;99960.53;7398852;19;20389;-84
2023/09/18 04:15:19;;;;;;;7.38;5.78;;;;;;;18.39;92.08;99948.97;7401046;19;20349;-83
2023/09/18 04:17:47;;;;;;;8.07;5.07;;;;;;;18.37;92.54;99937.66;7398869;19;20355;-84
2023/09/18 04:20:15;;;;;;;6.75;5.20;;;;;;;18.39;92.47;99935.53;7398691;19;20828;-84
2023/09/18 04:22:49;;;;;;;7.55;5.63;;;;;;;18.37;92.60;99931.47;7397777;19;20766;-84
2023/09/18 04:25:18;;;;;;;8.40;5.70;;;;;;;18.38;92.49;99930.41;7400243;19;20376;-84
2023/09/18 04:27:49;;;;;;;7.53;5.47;;;;;;;18.37;92.58;99926.13;7392459;19;20364;-84
2023/09/18 04:30:19;;;;;;;7.75;5.60;;;;;;;18.37;92.28;99923.44;7401393;19;20734;-84
2023/09/18 04:32:47;;;;;;;7.78;5.75;;;;;;;18.37;92.40;99926.13;7400176;19;20356;-85
2023/09/18 04:35:15;;;;;;;7.18;5.78;;;;;;;18.36;92.63;99916.41;7404121;19;20353;-85
2023/09/18 04:37:42;;;;;;;7.25;5.70;;;;;;;18.36;92.52;99906.50;7401898;19;20348;-85
2023/09/18 04:40:10;;;;;;;8.57;5.63;;;;;;;18.36;92.53;99908.38;7398770;19;20357;-89
2023/09/18 04:42:42;;;;;;;7.15;5.10;;;;;;;18.36;92.66;99901.13;7395364;19;20696;-89
2023/09/18 04:45:09;;;;;;;8.27;5.50;;;;;;;18.37;92.34;99901.94;7392072;19;20368;-89
2023/09/18 04:47:36;;;;;;;7.03;5.67;;;;;;;18.38;92.33;99899.00;7395230;19;20418;-89
2023/09/18 04:50:09;;;;;;;8.32;5.35;;;;;;;18.40;92.53;99898.75;7393057;19;20372;-89
2023/09/18 04:52:40;;;;;;;7.80;5.80;;;;;;;18.40;92.34;99894.19;7393969;19;20670;-89
2023/09/18 04:55:10;;;;;;;6.60;5.70;;;;;;;18.40;92.32;99885.31;7394335;19;20675;-88
2023/09/18 04:57:37;;;;;;;8.88;5.80;;;;;;;18.40;92.49;99879.97;7391769;19;20893;-89
2023/09/18 05:00:08;;;;;;;8.45;5.90;;;;;;;18.41;92.58;99870.84;7391271;19;20673;-88
2023/09/18 05:02:43;;;;;;;9.27;5.80;;;;;;;18.42;92.32;99867.09;7392757;19;20419;-89
2023/09/18 05:05:11;;;;;;;7.68;5.80;;;;;;;18.43;92.49;99858.00;7389829;19;20365;-88
2023/09/18 05:07:38;;;;;;;10.30;6.03;;;;;;;18.44;92.36;99856.94;7397374;19;20915;-88
2023/09/18 05:10:06;;;;;;;8.52;5.70;;;;;;;18.46;92.58;99862.88;7391684;19;20373;-88
2023/09/18 05:12:33;;;;;;;7.93;5.43;;;;;;;18.49;92.36;99862.38;7396002;19;20397;-88
2023/09/18 05:15:00;;;;;;;9.43;6.30;;;;;;;18.53;92.26;99855.44;7396552;19;20345;-88
2023/09/18 05:17:42;;;;;;;9.70;6.35;;;;;;;18.59;92.27;99845.56;7396757;19;20360;-87
2023/09/18 05:20:13;;;;;;;7.90;6.27;;;;;;;18.61;92.24;99841.56;7392853;19;20412;-88
2023/09/18 05:22:41;;;;;;;10.13;6.30;;;;;;;18.66;92.18;99838.97;7391423;19;20394;-88
2023/09/18 05:25:12;;;;;;;10.48;6.43;;;;;;;18.72;91.91;99835.28;7395952;19;20372;-87
2023/09/18 05:27:48;;;;;;;10.75;6.65;;;;;;;18.74;91.42;99825.09;7396772;19;20364;-88
2023/09/18 05:30:21;;;;;;;8.65;6.63;;;;;;;18.79;91.58;99821.69;7389571;19;20357;-88
2023/09/18 05:32:48;;;;;;;10.90;7.45;;;;;;;18.82;91.50;99820.38;7391602;19;20895;-87
2023/09/18 05:35:16;;;;;;;10.98;6.80;;;;;;;18.86;91.23;99826.88;7391492;19;21060;-88
2023/09/18 05:37:44;;;;;;;11.43;7.47;;;;;;;18.89;91.45;99851.38;7386158;19;20356;-91
2023/09/18 05:40:12;;;;;;;10.90;7.30;;;;;;;18.96;91.20;99875.38;7383899;19;20407;-60
2023/09/18 05:42:43;;;;;;;13.13;6.93;;;;;;;19.03;91.03;99859.88;7387510;19;20365;-63
2023/09/18 05:45:11;;;;;;;11.50;7.72;;;;;;;19.11;91.21;99854.03;7390403;19;20398;-63
2023/09/18 05:47:38;;;;;;;10.25;6.75;;;;;;;19.20;91.18;99849.03;7388753;19;20344;-63
2023/09/18 05:50:07;;;;;;;8.48;6.70;;;;;;;19.30;90.63;99843.75;7390797;19;20364;-63
2023/09/18 05:52:34;;;;;;;12.23;6.55;;;;;;;19.40;90.53;99842.22;7389318;19;20344;-63
2023/09/18 05:55:04;;;;;;;11.90;6.70;;;;;;;19.49;88.03;99841.53;7385774;19;20364;-64
2023/09/18 05:57:32;;;;;;;18.60;12.52;;;;;;;19.79;84.21;99824.06;7387545;19;20344;-63
2023/09/18 05:59:58;;;;;;;62.58;48.83;;;;;;;20.15;84.93;99827.00;7387857;19;20943;-62
2023/09/18 06:02:26;;;;;;;25.20;17.00;;;;;;;20.53;81.89;99828.56;7386250;19;20360;-64
2023/09/18 06:04:57;;;;;;;17.90;10.70;;;;;;;20.91;80.61;99821.22;7389179;19;20348;-62
2023/09/18 06:07:24;;;;;;;37.92;24.48;;;;;;;21.17;79.10;99821.28;7386010;19;20359;-63
2023/09/18 06:09:51;;;;;;;29.77;22.10;;;;;;;21.38;78.44;99816.72;7385748;19;20444;-62
2023/09/18 06:12:18;;;;;;;63.77;48.13;;;;;;;21.54;76.05;99807.56;7386682;19;20390;-63
2023/09/18 06:14:47;;;;;;;14.53;10.33;;;;;;;21.65;76.45;99803.00;7388463;19;20700;-62
2023/09/18 06:17:15;;;;;;;32.03;22.73;;;;;;;21.75;76.76;99802.19;7387607;19;20833;-62
2023/09/18 06:19:45;;;;;;;25.75;14.85;;;;;;;21.87;76.39;99800.03;7388980;19;20364;-63
2023/09/18 06:22:12;;;;;;;217.43;153.82;;;;;;;21.97;75.96;99791.91;7388868;19;20348;-63
2023/09/18 06:24:39;;;;;;;10.63;5.32;;;;;;;22.03;76.40;99781.88;7386885;19;20852;-63
2023/09/18 06:27:06;;;;;;;12.55;9.68;;;;;;;22.05;76.48;99758.13;7387740;19;20368;-63
2023/09/18 06:29:34;;;;;;;9.88;5.60;;;;;;;22.06;75.89;99740.03;7388542;19;20365;-63
2023/09/18 06:32:01;;;;;;;86.30;64.30;;;;;;;22.05;76.35;99727.63;7381038;19;20431;-63
2023/09/18 06:34:28;;;;;;;14.33;10.73;;;;;;;22.11;75.20;99737.31;7388232;19;20457;-62
2023/09/18 06:36:55;;;;;;;7.53;5.47;;;;;;;22.15;75.55;99730.28;7385777;19;20368;-63
2023/09/18 06:39:23;;;;;;;76.47;63.57;;;;;;;22.21;76.24;99731.91;7389038;19;20377;-63
2023/09/18 06:41:50;;;;;;;15.65;10.38;;;;;;;22.27;76.39;99728.13;7389501;19;20352;-63
2023/09/18 06:44:18;;;;;;;9.27;5.68;;;;;;;22.35;76.21;99724.03;7393403;19;20877;-63
2023/09/18 06:46:45;;;;;;;9.77;7.17;;;;;;;22.38;76.09;99732.38;7392476;19;20348;-62
2023/09/18 06:49:12;;;;;;;6.75;4.60;;;;;;;22.44;75.91;99733.19;7396948;19;20344;-63
2023/09/18 06:51:41;;;;;;;8.50;6.50;;;;;;;22.46;75.43;99743.69;7393853;19;20444;-63
2023/09/18 06:54:10;;;;;;;5.80;4.88;;;;;;;22.49;76.06;99740.47;7396062;19;20373;-63
2023/09/18 06:56:36;;;;;;;14.13;6.90;;;;;;;22.50;75.89;99745.56;7392837;19;20363;-63
2023/09/18 06:59:03;;;;;;;30.40;20.48;;;;;;;22.55;75.61;99747.47;7395712;19;20664;-63
2023/09/18 07:01:31;;;;;;;29.33;21.52;;;;;;;22.66;75.40;99737.41;7394898;19;20360;-62
2023/09/18 07:03:59;;;;;;;7.80;5.65;;;;;;;22.72;74.61;99749.81;7392551;19;20880;-63
2023/09/18 07:06:27;;;;;;;6.93;5.25;;;;;;;22.77;73.92;99750.56;7394137;19;20382;-62
2023/09/18 07:08:54;;;;;;;5.07;4.05;;;;;;;22.83;73.58;99748.66;7395097;19;20360;-62
2023/09/18 07:11:22;;;;;;;7.10;4.65;;;;;;;22.90;73.52;99751.03;7393460;19;20721;-62
2023/09/18 07:13:51;;;;;;;8.75;6.70;;;;;;;22.92;73.59;99751.56;7393590;19;20370;-63
2023/09/18 07:16:18;;;;;;;8.07;5.88;;;;;;;22.97;73.86;99749.66;7392883;19;20359;-63
2023/09/18 07:18:45;;;;;;;10.93;8.75;;;;;;;23.04;73.78;99741.25;7389211;19;20348;-62
2023/09/18 07:21:12;;;;;;;6.88;5.25;;;;;;;23.10;73.83;99748.25;7393767;19;20373;-63
2023/09/18 07:23:40;;;;;;;8.63;6.03;;;;;;;23.16;73.46;99770.63;7393796;19;20394;-63
2023/09/18 07:26:07;;;;;;;10.30;7.93;;;;;;;23.24;73.35;99766.53;7392809;19;20361;-63
2023/09/18 07:28:34;;;;;;;4.68;4.13;;;;;;;23.30;73.34;99768.91;7394251;19;20488;-63
2023/09/18 07:31:09;;;;;;;9.80;7.32;;;;;;;23.34;72.50;99774.59;7391106;19;20770;-63
2023/09/18 07:33:35;;;;;;;5.20;3.90;;;;;;;23.40;73.17;99757.22;7395530;19;20365;-63
2023/09/18 07:36:03;;;;;;;5.95;3.97;;;;;;;23.48;72.91;99756.59;7393824;19;20333;-63
2023/09/18 07:38:30;;;;;;;11.88;8.95;;;;;;;23.53;72.92;99759.28;7393904;19;20356;-63
2023/09/18 07:40:58;;;;;;;5.95;4.25;;;;;;;23.58;72.47;99742.16;7391709;19;20368;-63
2023/09/18 07:43:25;;;;;;;5.00;3.45;;;;;;;23.66;72.04;99748.88;7394633;19;20920;-62
2023/09/18 07:45:54;;;;;;;76.25;55.53;;;;;;;23.71;71.49;99757.75;7391766;19;20364;-63
2023/09/18 07:48:22;;;;;;;4.35;3.08;;;;;;;23.68;71.63;99762.94;7393341;19;20372;-63
2023/09/18 07:50:49;;;;;;;5.18;3.17;;;;;;;23.67;70.70;99764.00;7390642;19;20885;-62
2023/09/18 07:53:18;;;;;;;17.95;13.98;;;;;;;23.71;70.33;99740.69;7392718;19;20365;-63
2023/09/18 07:55:44;;;;;;;5.00;3.10;;;;;;;23.82;70.51;99769.31;7392769;19;20353;-63
2023/09/18 07:58:11;;;;;;;10.40;7.97;;;;;;;23.83;69.88;99781.78;7392646;19;20344;-63
2023/09/18 08:00:39;;;;;;;11.07;7.78;;;;;;;23.87;69.93;99769.28;7391440;19;20454;-63
2023/09/18 08:03:06;;;;;;;104.57;75.93;;;;;;;23.97;69.17;99763.75;7393160;19;20423;-63
2023/09/18 08:05:33;;;;;;;27.95;21.08;;;;;;;24.12;68.99;99761.97;7392523;19;20926;-63
2023/09/18 08:08:00;;;;;;;7.15;3.88;;;;;;;24.24;68.75;99772.41;7394000;19;20380;-63
2023/09/18 08:10:27;;;;;;;8.97;3.57;;;;;;;24.33;67.83;99778.81;7393010;19;20359;-63
2023/09/18 08:12:54;;;;;;;6.22;3.78;;;;;;;24.38;67.18;99782.28;7393028;19;20354;-63
2023/09/18 08:15:21;;;;;;;4.97;2.95;;;;;;;24.41;66.95;99783.59;7391708;19;20347;-63
2023/09/18 08:17:49;;;;;;;8.07;3.10;;;;;;;24.54;66.06;99782.13;7393007;19;20845;-63
2023/09/18 08:20:16;;;;;;;5.82;3.00;;;;;;;24.58;66.53;99781.22;7393979;19;20356;-63
2023/09/18 08:22:44;;;;;;;5.60;2.70;;;;;;;24.70;66.57;99788.16;7391700;19;20347;-63
2023/09/18 08:25:11;;;;;;;17.48;12.82;;;;;;;24.84;66.23;99786.31;7387790;19;20371;-62
2023/09/18 08:27:43;;;;;;;6.47;3.05;;;;;;;24.95;65.78;99795.13;7391789;19;20370;-63
2023/09/18 08:30:12;;;;;;;6.95;3.03;;;;;;;24.97;65.36;99795.66;7392802;19;20340;-63
2023/09/18 08:32:41;;;;;;;6.10;3.20;;;;;;;24.92;65.13;99785.69;7389405;19;20370;-62
2023/09/18 08:35:09;;;;;;;4.57;3.03;;;;;;;24.94;65.71;99798.94;7389110;19;20368;-63
2023/09/18 08:37:36;;;;;;;6.32;3.00;;;;;;;24.95;65.35;99792.41;7391639;19;20856;-63
2023/09/18 08:40:09;;;;;;;25.50;17.30;;;;;;;24.85;64.81;99787.16;7392457;19;20870;-63
2023/09/18 08:42:56;;;;;;;6.10;2.67;;;;;;;24.70;64.95;99794.38;7389633;19;20369;-64
2023/09/18 08:45:43;;;;;;;4.85;2.63;;;;;;;24.61;65.28;99796.16;7389934;19;20368;-63
2023/09/18 08:48:10;;;;;;;6.90;3.22;;;;;;;24.65;66.21;99794.44;7388844;19;20703;-63
2023/09/18 08:50:38;;;;;;;10.00;2.70;;;;;;;24.62;65.71;99800.44;7385309;19;20372;-63
2023/09/18 08:53:05;;;;;;;5.93;2.43;;;;;;;24.65;66.41;99799.84;7390397;19;20356;-63
2023/09/18 08:55:34;;;;;;;5.82;2.97;;;;;;;24.73;65.90;99804.63;7390999;19;20426;-63
2023/09/18 08:58:01;;;;;;;7.97;2.80;;;;;;;24.70;65.66;99793.59;7389394;19;20963;-64
2023/09/18 09:00:28;;;;;;;6.28;2.40;;;;;;;24.67;66.19;99778.69;7391972;19;20376;-64
2023/09/18 09:02:55;;;;;;;6.40;2.33;;;;;;;24.66;65.73;99782.50;7389836;19;20352;-64
2023/09/18 09:05:23;;;;;;;6.70;2.40;;;;;;;24.62;66.08;99776.06;7389462;19;20856;-64
2023/09/18 09:07:50;;;;;;;6.95;2.47;;;;;;;24.70;66.25;99783.53;7392524;19;20810;-63
2023/09/18 09:10:18;;;;;;;9.15;2.80;;;;;;;24.67;66.04;99786.81;7389907;19;20364;-63
2023/09/18 09:13:02;;;;;;;9.23;2.75;;;;;;;24.64;65.66;99784.69;7391215;19;20352;-63
2023/09/18 09:15:35;;;;;;;6.60;2.22;;;;;;;24.60;65.21;99797.22;7387679;19;20352;-63
2023/09/18 09:18:07;;;;;;;6.50;2.00;;;;;;;24.63;65.02;99793.94;7391324;19;20374;-63
2023/09/18 09:20:35;;;;;;;8.70;2.63;;;;;;;24.68;63.79;99787.66;7391639;19;20976;-63
2023/09/18 09:23:05;;;;;;;9.70;2.72;;;;;;;24.70;64.67;99799.00;7390398;19;20386;-63
2023/09/18 09:25:33;;;;;;;6.55;2.40;;;;;;;24.68;64.58;99791.16;7389380;19;20419;-63
2023/09/18 09:28:05;;;;;;;6.80;2.40;;;;;;;24.75;65.12;99793.50;7391560;19;20368;-63
2023/09/18 09:30:33;;;;;;;12.10;2.35;;;;;;;24.70;64.76;99797.09;7390800;19;20358;-63
2023/09/18 09:33:02;;;;;;;7.65;2.25;;;;;;;24.79;64.83;99783.69;7391538;19;20382;-63
2023/09/18 09:35:33;;;;;;;6.07;2.33;;;;;;;24.78;64.37;99780.19;7388256;19;20840;-64
2023/09/18 09:38:01;;;;;;;5.93;1.88;;;;;;;24.70;63.82;99783.53;7391946;19;20380;-63
2023/09/18 09:40:30;;;;;;;7.47;2.13;;;;;;;24.62;64.19;99803.16;7389398;19;20364;-63
2023/09/18 09:43:00;;;;;;;6.07;2.17;;;;;;;24.57;64.52;99800.53;7390022;19;20446;-64
2023/09/18 09:45:29;;;;;;;7.93;2.08;;;;;;;24.57;64.23;99800.53;7386037;19;20375;-63
2023/09/18 09:47:58;;;;;;;7.93;2.30;;;;;;;24.69;63.80;99798.19;7391179;19;20400;-63
2023/09/18 09:50:25;;;;;;;6.95;2.42;;;;;;;24.76;63.66;99804.06;7390614;19;20848;-63
2023/09/18 09:52:54;;;;;;;7.07;2.07;;;;;;;24.85;63.85;99784.44;7392012;19;20365;-63
2023/09/18 09:55:30;;;;;;;5.75;2.38;;;;;;;24.82;63.55;99793.94;7387284;19;20428;-63
2023/09/18 09:57:59;;;;;;;6.95;2.25;;;;;;;24.82;63.84;99797.50;7391083;19;20332;-63
2023/09/18 10:00:36;;;;;;;7.20;2.30;;;;;;;24.81;64.02;99790.44;7389457;19;20405;-63
2023/09/18 10:03:08;;;;;;;6.95;2.30;;;;;;;24.77;63.56;99791.31;7388379;19;20347;-63
2023/09/18 10:05:38;;;;;;;6.47;2.40;;;;;;;24.78;63.69;99785.59;7388650;19;20503;-63
2023/09/18 10:08:11;;;;;;;6.88;2.13;;;;;;;24.77;64.47;99794.03;7391164;19;20376;-63
2023/09/18 10:10:44;;;;;;;5.95;2.30;;;;;;;24.71;64.18;99798.69;7389796;19;20361;-62
2023/09/18 10:13:21;;;;;;;5.88;2.10;;;;;;;24.70;63.89;99788.16;7388292;19;20408;-63
2023/09/18 10:15:50;;;;;;;6.60;2.58;;;;;;;24.80;64.51;99794.25;7390239;19;20750;-62
2023/09/18 10:18:31;;;;;;;6.80;2.25;;;;;;;24.92;63.44;99793.00;7399042;19;20370;-63
2023/09/18 10:21:24;;;;;;;9.25;2.30;;;;;;;24.96;63.77;99786.69;7397826;19;20344;-63
2023/09/18 10:23:56;;;;;;;5.22;1.90;;;;;;;25.02;62.96;99795.59;7398990;19;20376;-63
2023/09/18 10:26:25;;;;;;;7.00;2.22;;;;;;;25.03;63.33;99781.72;7395282;19;20368;-63
2023/09/18 10:28:58;;;;;;;8.43;2.13;;;;;;;24.95;62.75;99803.28;7397242;19;20352;-63
2023/09/18 10:31:28;;;;;;;7.53;2.03;;;;;;;24.93;63.41;99790.00;7395200;19;20348;-63
2023/09/18 10:33:59;;;;;;;5.30;2.00;;;;;;;24.81;63.40;99782.28;7394770;19;20352;-63
2023/09/18 10:36:27;;;;;;;5.50;2.20;;;;;;;24.82;63.43;99770.38;7394112;19;20364;-63
2023/09/18 10:39:00;;;;;;;5.90;1.90;;;;;;;24.79;63.39;99768.22;7395472;19;20385;-63
2023/09/18 10:41:28;;;;;;;5.20;1.80;;;;;;;24.84;63.00;99805.31;7393565;19;20932;-63
2023/09/18 10:43:57;;;;;;;8.17;2.70;;;;;;;24.96;63.66;99799.47;7394460;19;20337;-63
2023/09/18 10:46:26;;;;;;;6.38;2.30;;;;;;;25.00;62.62;99797.78;7393654;19;20463;-63
2023/09/18 10:48:54;;;;;;;5.00;1.90;;;;;;;25.13;62.96;99794.34;7393825;19;20708;-64
2023/09/18 10:51:22;;;;;;;7.15;1.80;;;;;;;25.07;62.35;99798.22;7393600;19;20360;-63
2023/09/18 10:53:49;;;;;;;5.35;2.00;;;;;;;25.08;62.45;99807.19;7394754;19;20375;-63
2023/09/18 10:56:16;;;;;;;5.15;2.17;;;;;;;25.17;62.54;99819.00;7392559;19;20360;-63
2023/09/18 10:58:43;;;;;;;6.65;2.08;;;;;;;25.18;62.69;99794.28;7396203;19;20348;-63
2023/09/18 11:01:13;;;;;;;5.10;1.75;;;;;;;25.19;62.37;99809.44;7395389;19;20740;-63
2023/09/18 11:03:41;;;;;;;6.38;1.95;;;;;;;25.23;62.38;99807.00;7394651;19;20864;-61
2023/09/18 11:06:12;;;;;;;5.65;1.77;;;;;;;25.29;61.96;99827.53;7394381;19;21183;-63
2023/09/18 11:08:45;;;;;;;4.88;1.90;;;;;;;25.21;62.02;99852.63;7395501;19;20356;-63
2023/09/18 11:11:14;;;;;;;3.97;1.53;;;;;;;25.14;61.60;99842.09;7394470;19;20368;-63
2023/09/18 11:13:43;;;;;;;6.80;1.77;;;;;;;25.07;62.52;99863.34;7393508;19;20376;-62
2023/09/18 11:16:28;;;;;;;7.63;2.10;;;;;;;25.11;62.36;99860.88;7393522;19;20861;-63
2023/09/18 11:18:58;;;;;;;5.25;1.80;;;;;;;25.21;62.18;99860.75;7395663;19;20351;-63
2023/09/18 11:21:30;;;;;;;5.43;1.95;;;;;;;25.37;61.76;99866.75;7393131;19;20377;-63
2023/09/18 11:24:11;;;;;;;7.32;1.80;;;;;;;25.47;61.69;99855.75;7391348;19;20364;-63
2023/09/18 11:26:42;;;;;;;5.38;1.77;;;;;;;25.66;61.61;99838.63;7393151;19;20364;-61
2023/09/18 11:29:12;;;;;;;3.83;1.60;;;;;;;25.76;60.83;99852.06;7391189;19;20441;-63
2023/09/18 11:31:53;;;;;;;5.90;1.80;;;;;;;25.82;60.13;99867.16;7393395;19;20398;-63
2023/09/18 11:34:22;;;;;;;6.28;2.03;;;;;;;25.82;60.25;99867.16;7393383;19;20940;-61
2023/09/18 11:36:50;;;;;;;7.63;2.00;;;;;;;25.82;59.83;99851.69;7391452;19;20353;-63